sensor_id;sensor_type;location;lat;lon;timestamp;pressure;altitude;pressure_sealevel;temperature;humidity
67015;BME280;1033;52.560;13.374;2023-09-18T00:00:13;100724.28;;;19.66;79.49
67015;BME280;1033;52.560;13.374;2023-09-18T00:02:44;100713.81;;;19.58;80.13
67015;BME280;1033;52.560;13.374;2023-09-18T00:05:14;100717.63;;;19.57;80.77
67015;BME280;1033;52.560;13.374;2023-09-18T00:07:43;100713.78;;;19.52;80.55
67015;BME280;1033;52.560;13.374;2023-09-18T00:10:13;100713.25;;;19.61;80.41
67015;BME280;1033;52.560;13.374;2023-09-18T00:12:42;100711.28;;;19.51;80.78
67015;BME280;1033;52.560;13.374;2023-09-18T00:15:14;100705.41;;;19.37;81.54
67015;BME280;1033;52.560;13.374;2023-09-18T00:17:45;100713.53;;;19.54;81.17
67015;BME280;1033;52.560;13.374;2023-09-18T00:20:14;100708.09;;;19.64;80.77
67015;BME280;1033;52.560;13.374;2023-09-18T00:22:48;100707.50;;;19.57;81.14
67015;BME280;1033;52.560;13.374;2023-09-18T00:25:17;100706.16;;;19.60;81.05
67015;BME280;1033;52.560;13.374;2023-09-18T00:27:46;100708.53;;;19.46;81.40
67015;BME280;1033;52.560;13.374;2023-09-18T00:30:15;100694.63;;;19.63;80.85
67015;BME280;1033;52.560;13.374;2023-09-18T00:32:46;100698.09;;;19.48;81.49
67015;BME280;1033;52.560;13.374;2023-09-18T00:35:18;100693.44;;;19.48;81.74
67015;BME280;1033;52.560;13.374;2023-09-18T00:37:47;100703.59;;;19.48;81.55
67015;BME280;1033;52.560;13.374;2023-09-18T00:40:16;100697.19;;;19.37;82.55
67015;BME280;1033;52.560;13.374;2023-09-18T00:42:45;100693.34;;;19.38;82.44
67015;BME280;1033;52.560;13.374;2023-09-18T00:45:15;100684.38;;;19.48;82.01
67015;BME280;1033;52.560;13.374;2023-09-18T00:47:46;100680.72;;;19.37;82.13
67015;BME280;1033;52.560;13.374;2023-09-18T00:50:15;100672.44;;;19.32;82.95
67015;BME280;1033;52.560;13.374;2023-09-18T00:52:44;100677.66;;;19.29;83.16
67015;BME280;1033;52.560;13.374;2023-09-18T00:55:14;100670.59;;;19.43;82.25
67015;BME280;1033;52.560;13.374;2023-09-18T00:57:43;100671.13;;;19.35;82.64
67015;BME280;1033;52.560;13.374;2023-09-18T01:00:13;100672.72;;;19.26;82.87
67015;BME280;1033;52.560;13.374;2023-09-18T01:02:46;100677.91;;;19.27;83.39
67015;BME280;1033;52.560;13.374;2023-09-18T01:05:16;100681.81;;;19.31;82.88
67015;BME280;1033;52.560;13.374;2023-09-18T01:07:47;100681.72;;;19.21;83.63
67015;BME280;1033;52.560;13.374;2023-09-18T01:10:16;100675.09;;;19.12;83.72
67015;BME280;1033;52.560;13.374;2023-09-18T01:12:48;100673.97;;;19.13;83.92
67015;BME280;1033;52.560;13.374;2023-09-18T01:15:30;100671.88;;;19.25;83.20
67015;BME280;1033;52.560;13.374;2023-09-18T01:18:02;100672.44;;;19.32;82.80
67015;BME280;1033;52.560;13.374;2023-09-18T01:20:31;100669.38;;;19.24;82.95
67015;BME280;1033;52.560;13.374;2023-09-18T01:23:03;100658.69;;;19.27;83.22
67015;BME280;1033;52.560;13.374;2023-09-18T01:25:32;100657.81;;;19.12;84.05
67015;BME280;1033;52.560;13.374;2023-09-18T01:28:02;100666.28;;;19.10;84.32
67015;BME280;1033;52.560;13.374;2023-09-18T01:30:31;100665.41;;;19.04;84.25
67015;BME280;1033;52.560;13.374;2023-09-18T01:33:03;100653.31;;;19.00;84.77
67015;BME280;1033;52.560;13.374;2023-09-18T01:35:34;100655.56;;;19.08;84.38
67015;BME280;1033;52.560;13.374;2023-09-18T01:38:05;100649.75;;;19.00;84.74
67015;BME280;1033;52.560;13.374;2023-09-18T01:40:34;100658.66;;;18.80;85.81
67015;BME280;1033;52.560;13.374;2023-09-18T01:43:04;100648.44;;;18.71;86.95
67015;BME280;1033;52.560;13.374;2023-09-18T01:45:33;100647.41;;;18.77;86.49
67015;BME280;1033;52.560;13.374;2023-09-18T01:48:04;100648.72;;;18.74;86.94
67015;BME280;1033;52.560;13.374;2023-09-18T01:50:36;100647.25;;;18.61;87.64
67015;BME280;1033;52.560;13.374;2023-09-18T01:53:06;100648.88;;;18.57;88.60
67015;BME280;1033;52.560;13.374;2023-09-18T01:55:36;100656.19;;;18.52;88.14
67015;BME280;1033;52.560;13.374;2023-09-18T01:58:05;100655.06;;;18.48;88.95
67015;BME280;1033;52.560;13.374;2023-09-18T02:00:36;100649.78;;;18.41;89.31
67015;BME280;1033;52.560;13.374;2023-09-18T02:03:06;100636.88;;;18.63;87.99
67015;BME280;1033;52.560;13.374;2023-09-18T02:05:55;100625.38;;;18.66;87.57
67015;BME280;1033;52.560;13.374;2023-09-18T02:08:26;100616.63;;;18.70;87.33
67015;BME280;1033;52.560;13.374;2023-09-18T02:10:55;100610.63;;;18.73;87.04
67015;BME280;1033;52.560;13.374;2023-09-18T02:13:24;100606.78;;;18.69;87.16
67015;BME280;1033;52.560;13.374;2023-09-18T02:15:55;100602.34;;;18.62;87.43
67015;BME280;1033;52.560;13.374;2023-09-18T02:18:23;100599.56;;;18.57;88.00
67015;BME280;1033;52.560;13.374;2023-09-18T02:20:52;100590.75;;;18.55;87.80
67015;BME280;1033;52.560;13.374;2023-09-18T02:23:21;100594.13;;;18.62;87.23
67015;BME280;1033;52.560;13.374;2023-09-18T02:25:57;100590.63;;;18.72;87.08
67015;BME280;1033;52.560;13.374;2023-09-18T02:28:26;100592.41;;;18.56;87.90
67015;BME280;1033;52.560;13.374;2023-09-18T02:30:56;100582.75;;;18.49;88.67
67015;BME280;1033;52.560;13.374;2023-09-18T02:33:25;100571.69;;;18.39;89.34
67015;BME280;1033;52.560;13.374;2023-09-18T02:35:54;100579.59;;;18.35;89.42
67015;BME280;1033;52.560;13.374;2023-09-18T02:38:23;100577.53;;;18.47;89.17
67015;BME280;1033;52.560;13.374;2023-09-18T02:40:52;100578.78;;;18.35;89.83
67015;BME280;1033;52.560;13.374;2023-09-18T02:43:23;100573.28;;;18.30;90.23
67015;BME280;1033;52.560;13.374;2023-09-18T02:45:53;100568.78;;;18.18;90.38
67015;BME280;1033;52.560;13.374;2023-09-18T02:48:22;100559.63;;;18.08;91.31
67015;BME280;1033;52.560;13.374;2023-09-18T02:50:51;100563.00;;;18.15;91.51
67015;BME280;1033;52.560;13.374;2023-09-18T02:53:21;100564.31;;;18.39;89.91
67015;BME280;1033;52.560;13.374;2023-09-18T02:55:51;100552.97;;;18.31;89.85
67015;BME280;1033;52.560;13.374;2023-09-18T02:58:23;100553.19;;;18.19;90.86
67015;BME280;1033;52.560;13.374;2023-09-18T03:00:57;100549.75;;;18.07;91.81
67015;BME280;1033;52.560;13.374;2023-09-18T03:03:29;100549.25;;;18.10;91.54
67015;BME280;1033;52.560;13.374;2023-09-18T03:06:03;100551.50;;;18.18;91.41
67015;BME280;1033;52.560;13.374;2023-09-18T03:08:34;100538.22;;;18.00;92.07
67015;BME280;1033;52.560;13.374;2023-09-18T03:11:11;100535.00;;;18.08;92.23
67015;BME280;1033;52.560;13.374;2023-09-18T03:13:45;100539.88;;;18.01;92.59
67015;BME280;1033;52.560;13.374;2023-09-18T03:16:17;100527.59;;;18.08;91.62
67015;BME280;1033;52.560;13.374;2023-09-18T03:18:47;100536.34;;;18.05;92.23
67015;BME280;1033;52.560;13.374;2023-09-18T03:21:17;100537.09;;;17.96;92.68
67015;BME280;1033;52.560;13.374;2023-09-18T03:23:46;100538.31;;;18.10;91.94
67015;BME280;1033;52.560;13.374;2023-09-18T03:26:14;100534.56;;;18.21;91.17
67015;BME280;1033;52.560;13.374;2023-09-18T03:28:45;100531.78;;;18.16;91.19
67015;BME280;1033;52.560;13.374;2023-09-18T03:31:15;100532.06;;;18.14;91.63
67015;BME280;1033;52.560;13.374;2023-09-18T03:33:45;100530.88;;;18.05;92.35
67015;BME280;1033;52.560;13.374;2023-09-18T03:36:14;100528.03;;;17.95;93.07
67015;BME280;1033;52.560;13.374;2023-09-18T03:38:43;100528.81;;;17.91;93.25
67015;BME280;1033;52.560;13.374;2023-09-18T03:41:12;100521.59;;;17.79;94.11
67015;BME280;1033;52.560;13.374;2023-09-18T03:43:41;100524.72;;;17.93;93.45
67015;BME280;1033;52.560;13.374;2023-09-18T03:46:12;100524.97;;;17.92;93.42
67015;BME280;1033;52.560;13.374;2023-09-18T03:48:45;100529.41;;;17.98;92.84
67015;BME280;1033;52.560;13.374;2023-09-18T03:51:15;100519.88;;;18.00;92.80
67015;BME280;1033;52.560;13.374;2023-09-18T03:53:44;100523.13;;;17.97;93.16
67015;BME280;1033;52.560;13.374;2023-09-18T03:56:14;100526.44;;;17.99;92.94
67015;BME280;1033;52.560;13.374;2023-09-18T03:58:43;100520.38;;;17.97;92.93
67015;BME280;1033;52.560;13.374;2023-09-18T04:01:15;100520.66;;;17.96;93.01
67015;BME280;1033;52.560;13.374;2023-09-18T04:03:46;100521.25;;;18.03;93.11
67015;BME280;1033;52.560;13.374;2023-09-18T04:06:15;100514.56;;;17.89;94.18
67015;BME280;1033;52.560;13.374;2023-09-18T04:08:47;100508.63;;;17.70;95.31
67015;BME280;1033;52.560;13.374;2023-09-18T04:11:16;100513.56;;;17.73;95.16
67015;BME280;1033;52.560;13.374;2023-09-18T04:13:46;100506.19;;;17.73;95.64
67015;BME280;1033;52.560;13.374;2023-09-18T04:16:17;100494.13;;;17.69;95.61
67015;BME280;1033;52.560;13.374;2023-09-18T04:18:46;100494.94;;;17.70;95.93
67015;BME280;1033;52.560;13.374;2023-09-18T04:21:15;100494.00;;;17.59;96.54
67015;BME280;1033;52.560;13.374;2023-09-18T04:23:44;100488.00;;;17.62;96.36
67015;BME280;1033;52.560;13.374;2023-09-18T04:26:13;100490.06;;;17.50;97.22
67015;BME280;1033;52.560;13.374;2023-09-18T04:28:43;100483.06;;;17.59;97.07
67015;BME280;1033;52.560;13.374;2023-09-18T04:31:12;100484.53;;;17.67;96.64
67015;BME280;1033;52.560;13.374;2023-09-18T04:33:43;100487.00;;;17.68;96.20
67015;BME280;1033;52.560;13.374;2023-09-18T04:36:13;100484.00;;;17.70;96.42
67015;BME280;1033;52.560;13.374;2023-09-18T04:38:42;100482.88;;;17.66;96.32
67015;BME280;1033;52.560;13.374;2023-09-18T04:41:11;100474.97;;;17.69;96.04
67015;BME280;1033;52.560;13.374;2023-09-18T04:43:40;100477.59;;;17.59;96.57
67015;BME280;1033;52.560;13.374;2023-09-18T04:46:10;100477.91;;;17.63;97.01
67015;BME280;1033;52.560;13.374;2023-09-18T04:48:39;100476.56;;;17.65;96.72
67015;BME280;1033;52.560;13.374;2023-09-18T04:51:10;100467.88;;;17.73;96.36
67015;BME280;1033;52.560;13.374;2023-09-18T04:53:41;100472.31;;;17.79;95.65
67015;BME280;1033;52.560;13.374;2023-09-18T04:56:11;100478.81;;;17.73;96.14
67015;BME280;1033;52.560;13.374;2023-09-18T04:58:40;100476.97;;;17.79;95.97
67015;BME280;1033;52.560;13.374;2023-09-18T05:01:10;100477.34;;;17.93;95.07
67015;BME280;1033;52.560;13.374;2023-09-18T05:03:40;100475.59;;;17.81;95.29
67015;BME280;1033;52.560;13.374;2023-09-18T05:06:12;100466.38;;;17.88;95.42
67015;BME280;1033;52.560;13.374;2023-09-18T05:08:41;100470.97;;;17.82;95.62
67015;BME280;1033;52.560;13.374;2023-09-18T05:11:10;100466.59;;;17.81;95.93
67015;BME280;1033;52.560;13.374;2023-09-18T05:13:42;100463.09;;;17.86;95.90
67015;BME280;1033;52.560;13.374;2023-09-18T05:16:11;100464.25;;;17.95;95.22
67015;BME280;1033;52.560;13.374;2023-09-18T05:18:41;100456.34;;;17.98;94.65
67015;BME280;1033;52.560;13.374;2023-09-18T05:21:11;100452.94;;;18.18;93.42
67015;BME280;1033;52.560;13.374;2023-09-18T05:23:40;100455.72;;;18.23;93.27
67015;BME280;1033;52.560;13.374;2023-09-18T05:26:09;100449.19;;;18.29;92.39
67015;BME280;1033;52.560;13.374;2023-09-18T05:28:38;100450.34;;;18.38;91.88
67015;BME280;1033;52.560;13.374;2023-09-18T05:31:08;100447.66;;;18.48;91.02
67015;BME280;1033;52.560;13.374;2023-09-18T05:33:37;100453.75;;;18.55;90.69
67015;BME280;1033;52.560;13.374;2023-09-18T05:36:06;100459.50;;;18.59;90.75
67015;BME280;1033;52.560;13.374;2023-09-18T05:38:37;100456.03;;;18.74;89.22
67015;BME280;1033;52.560;13.374;2023-09-18T05:41:06;100449.31;;;18.96;88.14
67015;BME280;1033;52.560;13.374;2023-09-18T05:43:35;100444.13;;;19.10;87.25
67015;BME280;1033;52.560;13.374;2023-09-18T05:46:04;100443.91;;;19.17;86.71
67015;BME280;1033;52.560;13.374;2023-09-18T05:48:33;100435.66;;;19.27;86.04
67015;BME280;1033;52.560;13.374;2023-09-18T05:51:02;100431.66;;;19.49;84.47
67015;BME280;1033;52.560;13.374;2023-09-18T05:53:31;100432.75;;;19.53;84.47
67015;BME280;1033;52.560;13.374;2023-09-18T05:56:05;100436.03;;;19.66;83.40
67015;BME280;1033;52.560;13.374;2023-09-18T05:58:34;100430.56;;;19.71;83.46
67015;BME280;1033;52.560;13.374;2023-09-18T06:01:03;100419.06;;;19.79;82.77
67015;BME280;1033;52.560;13.374;2023-09-18T06:03:32;100412.19;;;20.02;81.43
67015;BME280;1033;52.560;13.374;2023-09-18T06:06:03;100411.06;;;20.08;81.42
67015;BME280;1033;52.560;13.374;2023-09-18T06:08:33;100402.53;;;20.09;81.13
67015;BME280;1033;52.560;13.374;2023-09-18T06:11:02;100400.59;;;20.20;80.46
67015;BME280;1033;52.560;13.374;2023-09-18T06:13:32;100399.75;;;20.29;79.33
67015;BME280;1033;52.560;13.374;2023-09-18T06:16:02;100400.34;;;20.21;79.70
67015;BME280;1033;52.560;13.374;2023-09-18T06:18:35;100404.44;;;20.24;79.71
67015;BME280;1033;52.560;13.374;2023-09-18T06:21:06;100391.00;;;20.22;79.50
67015;BME280;1033;52.560;13.374;2023-09-18T06:23:35;100389.09;;;20.23;79.79
67015;BME280;1033;52.560;13.374;2023-09-18T06:26:04;100392.09;;;20.26;79.49
67015;BME280;1033;52.560;13.374;2023-09-18T06:28:34;100383.84;;;20.26;80.08
67015;BME280;1033;52.560;13.374;2023-09-18T06:31:03;100394.25;;;20.45;79.40
67015;BME280;1033;52.560;13.374;2023-09-18T06:33:32;100387.09;;;20.54;78.73
67015;BME280;1033;52.560;13.374;2023-09-18T06:36:02;100384.31;;;20.59;77.98
67015;BME280;1033;52.560;13.374;2023-09-18T06:38:31;100389.56;;;20.55;78.15
67015;BME280;1033;52.560;13.374;2023-09-18T06:41:00;100382.66;;;20.58;78.42
67015;BME280;1033;52.560;13.374;2023-09-18T06:43:30;100374.97;;;20.65;78.12
67015;BME280;1033;52.560;13.374;2023-09-18T06:46:00;100374.66;;;20.76;77.52
67015;BME280;1033;52.560;13.374;2023-09-18T06:48:29;100369.91;;;20.87;77.27
67015;BME280;1033;52.560;13.374;2023-09-18T06:51:00;100369.84;;;20.97;76.13
67015;BME280;1033;52.560;13.374;2023-09-18T06:53:29;100357.75;;;20.98;75.68
67015;BME280;1033;52.560;13.374;2023-09-18T06:55:58;100362.34;;;21.08;75.33
67015;BME280;1033;52.560;13.374;2023-09-18T06:58:27;100361.16;;;21.29;74.30
67015;BME280;1033;52.560;13.374;2023-09-18T07:00:56;100355.84;;;21.43;73.81
67015;BME280;1033;52.560;13.374;2023-09-18T07:03:27;100354.34;;;21.55;73.63
67015;BME280;1033;52.560;13.374;2023-09-18T07:05:58;100348.59;;;21.52;72.79
67015;BME280;1033;52.560;13.374;2023-09-18T07:08:27;100348.28;;;21.58;72.93
67015;BME280;1033;52.560;13.374;2023-09-18T07:10:56;100339.41;;;21.66;72.43
67015;BME280;1033;52.560;13.374;2023-09-18T07:13:26;100338.97;;;21.83;72.44
67015;BME280;1033;52.560;13.374;2023-09-18T07:15:55;100335.03;;;21.94;72.14
67015;BME280;1033;52.560;13.374;2023-09-18T07:18:24;100323.44;;;21.97;70.80
67015;BME280;1033;52.560;13.374;2023-09-18T07:20:54;100323.91;;;22.04;70.71
67015;BME280;1033;52.560;13.374;2023-09-18T07:23:23;100324.97;;;22.08;70.50
67015;BME280;1033;52.560;13.374;2023-09-18T07:25:52;100324.69;;;22.10;70.79
67015;BME280;1033;52.560;13.374;2023-09-18T07:28:21;100326.50;;;22.20;70.18
67015;BME280;1033;52.560;13.374;2023-09-18T07:30:51;100329.91;;;22.35;70.18
67015;BME280;1033;52.560;13.374;2023-09-18T07:33:20;100319.44;;;22.56;69.05
67015;BME280;1033;52.560;13.374;2023-09-18T07:35:50;100321.50;;;22.45;69.13
67015;BME280;1033;52.560;13.374;2023-09-18T07:38:21;100320.75;;;22.40;68.78
67015;BME280;1033;52.560;13.374;2023-09-18T07:40:50;100314.38;;;22.63;69.04
67015;BME280;1033;52.560;13.374;2023-09-18T07:43:19;100316.22;;;22.73;68.36
67015;BME280;1033;52.560;13.374;2023-09-18T07:45:50;100328.91;;;22.92;67.49
67015;BME280;1033;52.560;13.374;2023-09-18T07:48:19;100315.19;;;22.87;67.34
67015;BME280;1033;52.560;13.374;2023-09-18T07:50:48;100316.84;;;23.07;66.50
67015;BME280;1033;52.560;13.374;2023-09-18T07:53:21;100310.41;;;23.12;66.56
67015;BME280;1033;52.560;13.374;2023-09-18T07:55:56;100307.41;;;23.27;66.39
67015;BME280;1033;52.560;13.374;2023-09-18T07:58:27;100316.53;;;23.46;66.05
67015;BME280;1033;52.560;13.374;2023-09-18T08:00:56;100316.94;;;23.53;65.37
67015;BME280;1033;52.560;13.374;2023-09-18T08:03:26;100311.81;;;23.47;64.94
67015;BME280;1033;52.560;13.374;2023-09-18T08:05:56;100307.34;;;23.51;64.78
67015;BME280;1033;52.560;13.374;2023-09-18T08:08:27;100311.34;;;23.58;64.80
67015;BME280;1033;52.560;13.374;2023-09-18T08:11:00;100305.75;;;23.77;64.82
67015;BME280;1033;52.560;13.374;2023-09-18T08:13:30;100298.19;;;23.82;63.74
67015;BME280;1033;52.560;13.374;2023-09-18T08:15:59;100290.72;;;23.83;63.57
67015;BME280;1033;52.560;13.374;2023-09-18T08:18:29;100292.66;;;23.82;63.35
67015;BME280;1033;52.560;13.374;2023-09-18T08:20:58;100293.31;;;24.07;63.13
67015;BME280;1033;52.560;13.374;2023-09-18T08:23:29;100297.25;;;24.33;62.71
67015;BME280;1033;52.560;13.374;2023-09-18T08:25:59;100297.66;;;24.40;62.21
67015;BME280;1033;52.560;13.374;2023-09-18T08:28:29;100282.97;;;24.67;60.93
67015;BME280;1033;52.560;13.374;2023-09-18T08:30:59;100279.38;;;24.66;60.45
67015;BME280;1033;52.560;13.374;2023-09-18T08:33:29;100268.53;;;24.56;60.78
67015;BME280;1033;52.560;13.374;2023-09-18T08:35:58;100288.22;;;24.68;60.34
67015;BME280;1033;52.560;13.374;2023-09-18T08:38:29;100293.50;;;24.79;59.77
67015;BME280;1033;52.560;13.374;2023-09-18T08:40:58;100287.16;;;24.78;59.64
67015;BME280;1033;52.560;13.374;2023-09-18T08:43:29;100282.19;;;25.02;59.04
67015;BME280;1033;52.560;13.374;2023-09-18T08:46:00;100272.78;;;24.90;58.75
67015;BME280;1033;52.560;13.374;2023-09-18T08:48:31;100280.88;;;25.00;59.32
67015;BME280;1033;52.560;13.374;2023-09-18T08:51:05;100275.59;;;25.12;58.10
67015;BME280;1033;52.560;13.374;2023-09-18T08:53:36;100276.22;;;25.09;58.57
67015;BME280;1033;52.560;13.374;2023-09-18T08:56:07;100261.88;;;25.29;57.86
67015;BME280;1033;52.560;13.374;2023-09-18T08:58:38;100267.91;;;25.53;57.46
67015;BME280;1033;52.560;13.374;2023-09-18T09:01:10;100261.81;;;25.65;57.03
67015;BME280;1033;52.560;13.374;2023-09-18T09:03:40;100250.34;;;25.58;57.22
67015;BME280;1033;52.560;13.374;2023-09-18T09:06:13;100258.16;;;25.87;56.65
67015;BME280;1033;52.560;13.374;2023-09-18T09:08:44;100242.78;;;25.72;56.30
67015;BME280;1033;52.560;13.374;2023-09-18T09:11:13;100254.41;;;25.83;56.20
67015;BME280;1033;52.560;13.374;2023-09-18T09:13:42;100237.34;;;26.37;55.23
67015;BME280;1033;52.560;13.374;2023-09-18T09:16:14;100232.13;;;26.45;54.88
67015;BME280;1033;52.560;13.374;2023-09-18T09:18:50;100228.72;;;26.48;54.06
67015;BME280;1033;52.560;13.374;2023-09-18T09:21:20;100223.78;;;26.45;53.82
67015;BME280;1033;52.560;13.374;2023-09-18T09:23:51;100222.97;;;26.35;53.77
67015;BME280;1033;52.560;13.374;2023-09-18T09:26:23;100221.00;;;26.36;53.76
67015;BME280;1033;52.560;13.374;2023-09-18T09:28:52;100217.94;;;26.37;53.41
67015;BME280;1033;52.560;13.374;2023-09-18T09:31:26;100211.75;;;26.75;52.84
67015;BME280;1033;52.560;13.374;2023-09-18T09:33:56;100210.47;;;26.98;52.06
67015;BME280;1033;52.560;13.374;2023-09-18T09:36:26;100199.50;;;27.19;51.53
67015;BME280;1033;52.560;13.374;2023-09-18T09:38:57;100205.84;;;27.37;50.62
67015;BME280;1033;52.560;13.374;2023-09-18T09:41:27;100200.16;;;27.24;50.80
67015;BME280;1033;52.560;13.374;2023-09-18T09:43:58;100188.69;;;27.35;50.20
67015;BME280;1033;52.560;13.374;2023-09-18T09:46:27;100182.78;;;27.36;50.41
67015;BME280;1033;52.560;13.374;2023-09-18T09:49:00;100187.09;;;27.25;50.65
67015;BME280;1033;52.560;13.374;2023-09-18T09:51:30;100180.47;;;27.55;50.58
67015;BME280;1033;52.560;13.374;2023-09-18T09:54:00;100187.63;;;27.74;49.73
67015;BME280;1033;52.560;13.374;2023-09-18T09:56:44;100188.34;;;27.91;49.19
67015;BME280;1033;52.560;13.374;2023-09-18T09:59:14;100194.19;;;27.98;48.32
67015;BME280;1033;52.560;13.374;2023-09-18T10:01:47;100184.47;;;27.75;48.97
67015;BME280;1033;52.560;13.374;2023-09-18T10:04:19;100189.16;;;27.92;49.30
67015;BME280;1033;52.560;13.374;2023-09-18T10:06:52;100186.13;;;28.05;48.85
67015;BME280;1033;52.560;13.374;2023-09-18T10:09:24;100179.06;;;28.08;48.42
67015;BME280;1033;52.560;13.374;2023-09-18T10:11:57;100175.19;;;28.00;48.70
67015;BME280;1033;52.560;13.374;2023-09-18T10:14:31;100170.22;;;27.85;49.21
67015;BME280;1033;52.560;13.374;2023-09-18T10:17:21;100162.75;;;28.36;48.04
67015;BME280;1033;52.560;13.374;2023-09-18T10:19:57;100167.56;;;28.27;47.79
67015;BME280;1033;52.560;13.374;2023-09-18T10:22:46;100170.00;;;28.49;48.18
67015;BME280;1033;52.560;13.374;2023-09-18T10:25:21;100163.53;;;28.57;47.34
67015;BME280;1033;52.560;13.374;2023-09-18T10:27:53;100160.34;;;28.67;47.15
67015;BME280;1033;52.560;13.374;2023-09-18T10:30:26;100164.84;;;28.39;47.73
67015;BME280;1033;52.560;13.374;2023-09-18T10:32:58;100174.03;;;28.60;47.63
67015;BME280;1033;52.560;13.374;2023-09-18T10:35:29;100190.88;;;28.84;47.49
67015;BME280;1033;52.560;13.374;2023-09-18T10:38:01;100195.25;;;28.85;46.73
67015;BME280;1033;52.560;13.374;2023-09-18T10:40:33;100199.03;;;29.22;46.25
67015;BME280;1033;52.560;13.374;2023-09-18T10:43:05;100196.22;;;29.43;45.63
67015;BME280;1033;52.560;13.374;2023-09-18T10:45:37;100189.72;;;29.51;44.57
67015;BME280;1033;52.560;13.374;2023-09-18T10:48:07;100197.44;;;29.01;44.61
67015;BME280;1033;52.560;13.374;2023-09-18T10:50:37;100204.38;;;28.94;45.04
67015;BME280;1033;52.560;13.374;2023-09-18T10:53:08;100190.31;;;28.70;45.67
67015;BME280;1033;52.560;13.374;2023-09-18T10:55:38;100187.78;;;28.36;45.47
67015;BME280;1033;52.560;13.374;2023-09-18T10:58:08;100178.00;;;28.30;45.93
67015;BME280;1033;52.560;13.374;2023-09-18T11:00:37;100170.03;;;27.90;46.00
67015;BME280;1033;52.560;13.374;2023-09-18T11:03:14;100167.34;;;28.02;46.67
67015;BME280;1033;52.560;13.374;2023-09-18T11:05:46;100179.94;;;28.00;46.49
67015;BME280;1033;52.560;13.374;2023-09-18T11:08:26;100180.31;;;27.90;46.46
67015;BME280;1033;52.560;13.374;2023-09-18T11:10:59;100183.88;;;27.99;46.67
67015;BME280;1033;52.560;13.374;2023-09-18T11:13:35;100185.84;;;27.98;46.66
67015;BME280;1033;52.560;13.374;2023-09-18T11:16:17;100185.63;;;28.03;46.39
67015;BME280;1033;52.560;13.374;2023-09-18T11:18:54;100183.47;;;27.88;47.39
67015;BME280;1033;52.560;13.374;2023-09-18T11:21:34;100182.53;;;28.05;47.05
67015;BME280;1033;52.560;13.374;2023-09-18T11:24:05;100190.13;;;28.25;47.31
67015;BME280;1033;52.560;13.374;2023-09-18T11:26:37;100188.38;;;28.21;47.16
67015;BME280;1033;52.560;13.374;2023-09-18T11:29:07;100193.44;;;28.19;47.28
67015;BME280;1033;52.560;13.374;2023-09-18T11:31:45;100189.66;;;27.85;47.62
67015;BME280;1033;52.560;13.374;2023-09-18T11:34:19;100187.94;;;27.72;47.81
67015;BME280;1033;52.560;13.374;2023-09-18T11:36:49;100185.53;;;27.62;48.67
67015;BME280;1033;52.560;13.374;2023-09-18T11:39:34;100189.13;;;27.62;48.88
67015;BME280;1033;52.560;13.374;2023-09-18T11:42:11;100194.22;;;27.90;48.40
67015;BME280;1033;52.560;13.374;2023-09-18T11:44:41;100187.00;;;27.97;48.28
67015;BME280;1033;52.560;13.374;2023-09-18T11:47:16;100179.41;;;27.77;48.56
67015;BME280;1033;52.560;13.374;2023-09-18T11:49:55;100182.47;;;27.84;48.81
67015;BME280;1033;52.560;13.374;2023-09-18T11:52:27;100170.34;;;27.51;48.81
67015;BME280;1033;52.560;13.374;2023-09-18T11:54:58;100175.78;;;27.39;49.30
67015;BME280;1033;52.560;13.374;2023-09-18T11:57:29;100161.75;;;27.18;49.82
67015;BME280;1033;52.560;13.374;2023-09-18T12:00:06;100170.63;;;26.94;49.97
67015;BME280;1033;52.560;13.374;2023-09-18T12:02:50;100174.88;;;26.92;50.61
67015;BME280;1033;52.560;13.374;2023-09-18T12:05:20;100163.25;;;27.07;50.55
67015;BME280;1033;52.560;13.374;2023-09-18T12:07:54;100163.72;;;27.17;50.10
67015;BME280;1033;52.560;13.374;2023-09-18T12:10:23;100154.56;;;27.17;50.53
67015;BME280;1033;52.560;13.374;2023-09-18T12:12:55;100167.44;;;27.39;50.40
67015;BME280;1033;52.560;13.374;2023-09-18T12:15:25;100163.16;;;27.58;49.76
67015;BME280;1033;52.560;13.374;2023-09-18T12:17:55;100156.84;;;27.79;48.75
67015;BME280;1033;52.560;13.374;2023-09-18T12:20:27;100150.75;;;27.85;48.73
67015;BME280;1033;52.560;13.374;2023-09-18T12:22:57;100152.75;;;28.05;47.89
67015;BME280;1033;52.560;13.374;2023-09-18T12:25:26;100160.41;;;28.08;47.59
67015;BME280;1033;52.560;13.374;2023-09-18T12:27:57;100160.22;;;28.22;47.80
67015;BME280;1033;52.560;13.374;2023-09-18T12:30:28;100153.03;;;28.42;46.78
67015;BME280;1033;52.560;13.374;2023-09-18T12:32:59;100149.78;;;28.40;46.64
67015;BME280;1033;52.560;13.374;2023-09-18T12:35:29;100147.03;;;28.52;46.01
67015;BME280;1033;52.560;13.374;2023-09-18T12:38:01;100135.91;;;28.52;46.76
67015;BME280;1033;52.560;13.374;2023-09-18T12:40:32;100137.91;;;28.31;46.89
67015;BME280;1033;52.560;13.374;2023-09-18T12:43:03;100122.56;;;27.95;46.99
67015;BME280;1033;52.560;13.374;2023-09-18T12:45:35;100131.47;;;27.80;47.65
67015;BME280;1033;52.560;13.374;2023-09-18T12:48:05;100138.66;;;27.52;47.98
67015;BME280;1033;52.560;13.374;2023-09-18T12:50:35;100132.53;;;27.20;48.30
67015;BME280;1033;52.560;13.374;2023-09-18T12:53:12;100138.25;;;27.15;49.26
67015;BME280;1033;52.560;13.374;2023-09-18T12:55:42;100133.66;;;27.19;48.79
67015;BME280;1033;52.560;13.374;2023-09-18T12:58:13;100123.56;;;27.06;49.26
67015;BME280;1033;52.560;13.374;2023-09-18T13:00:46;100137.63;;;27.01;49.13
67015;BME280;1033;52.560;13.374;2023-09-18T13:03:17;100146.59;;;27.07;49.20
67015;BME280;1033;52.560;13.374;2023-09-18T13:05:47;100161.66;;;26.89;50.03
67015;BME280;1033;52.560;13.374;2023-09-18T13:08:21;100158.69;;;26.51;50.75